createdAt,value
2018-11-27T00:00:31.658Z,44.23
2018-11-27T00:03:04.949Z,47.13
2018-11-27T00:05:33.739Z,43.87
2018-11-27T00:08:01.361Z,48.57
2018-11-27T00:10:30.118Z,50.60
2018-11-27T00:12:57.926Z,47.77
2018-11-27T00:15:25.690Z,47.50
2018-11-27T00:17:53.484Z,44.90
2018-11-27T00:20:23.069Z,47.47
2018-11-27T00:22:50.842Z,49.30
2018-11-27T00:25:18.886Z,45.70
2018-11-27T00:27:46.645Z,43.63
2018-11-27T00:30:15.981Z,44.67
2018-11-27T00:32:43.783Z,48.93
2018-11-27T00:35:11.975Z,48.47
2018-11-27T00:37:39.747Z,49.10
2018-11-27T00:40:14.903Z,43.37
2018-11-27T00:42:42.692Z,46.77
2018-11-27T00:45:11.614Z,48.47
2018-11-27T00:47:39.474Z,42.43
2018-11-27T00:50:11.421Z,45.17
2018-11-27T00:52:39.381Z,48.03
2018-11-27T00:55:08.871Z,50.67
2018-11-27T00:57:36.654Z,47.03
2018-11-27T01:00:10.446Z,45.87
2018-11-27T01:02:40.192Z,43.90
2018-11-27T01:05:09.790Z,46.20
2018-11-27T01:07:37.529Z,44.27
2018-11-27T01:10:12.024Z,44.50
2018-11-27T01:12:39.849Z,47.60
2018-11-27T01:15:08.255Z,46.73
2018-11-27T01:17:35.976Z,42.57
2018-11-27T01:20:06.590Z,45.87
2018-11-27T01:22:34.289Z,48.27
2018-11-27T01:25:02.117Z,48.20
2018-11-27T01:27:29.920Z,47.30
2018-11-27T01:29:57.647Z,48.30
2018-11-27T01:32:25.355Z,46.93
2018-11-27T01:34:52.990Z,44.93
2018-11-27T01:37:20.755Z,41.77
2018-11-27T01:39:48.476Z,48.27
2018-11-27T01:42:16.183Z,46.30
2018-11-27T01:44:43.923Z,44.43
2018-11-27T01:47:13.765Z,46.80
2018-11-27T01:49:41.514Z,46.63
2018-11-27T01:52:09.220Z,44.97
2018-11-27T01:54:36.958Z,46.53
2018-11-27T01:57:05.181Z,50.33
2018-11-27T01:59:32.868Z,50.17
2018-11-27T02:02:00.677Z,46.73
2018-11-27T02:04:28.385Z,44.60
2018-11-27T02:06:56.126Z,50.03
2018-11-27T02:09:24.116Z,49.37
2018-11-27T02:11:51.834Z,43.83
2018-11-27T02:14:19.557Z,46.73
2018-11-27T02:16:47.221Z,45.07
2018-11-27T02:19:15.035Z,45.47
2018-11-27T02:21:42.743Z,46.70
2018-11-27T02:24:10.650Z,45.20
2018-11-27T02:26:38.432Z,48.50
2018-11-27T02:29:06.039Z,43.10
2018-11-27T02:31:33.718Z,47.43
2018-11-27T02:34:01.466Z,42.73
2018-11-27T02:36:29.217Z,50.10
2018-11-27T02:38:56.918Z,45.93
2018-11-27T02:41:24.623Z,47.43
2018-11-27T02:43:52.351Z,44.97
2018-11-27T02:46:20.195Z,44.60
2018-11-27T02:48:47.811Z,47.67
2018-11-27T02:51:15.437Z,47.13
2018-11-27T02:53:43.166Z,49.77
2018-11-27T02:56:10.787Z,43.13
2018-11-27T02:58:38.401Z,45.30
2018-11-27T03:01:06.139Z,45.13
2018-11-27T03:03:33.850Z,48.97
2018-11-27T03:06:01.598Z,43.10
2018-11-27T03:08:29.266Z,44.30
2018-11-27T03:10:58.978Z,46.37
2018-11-27T03:13:26.784Z,48.87
2018-11-27T03:15:54.471Z,46.03
2018-11-27T03:18:22.135Z,48.50
2018-11-27T03:20:49.835Z,49.53
2018-11-27T03:23:18.398Z,46.73
2018-11-27T03:25:46.114Z,46.93
2018-11-27T03:28:14.553Z,43.23
2018-11-27T03:30:41.621Z,44.77
2018-11-27T03:33:09.329Z,45.50
2018-11-27T03:35:37.019Z,45.13
2018-11-27T03:38:05.115Z,45.63
2018-11-27T03:40:32.900Z,41.43
2018-11-27T03:43:00.614Z,45.53
2018-11-27T03:45:28.323Z,45.53
2018-11-27T03:47:56.012Z,43.97
2018-11-27T03:50:27.944Z,42.73
2018-11-27T03:52:57.471Z,42.30
2018-11-27T03:55:25.053Z,38.63
2018-11-27T03:57:53.172Z,41.53
2018-11-27T04:00:25.747Z,37.53
2018-11-27T04:02:55.093Z,47.97
2018-11-27T04:05:23.789Z,41.70
2018-11-27T04:07:51.601Z,40.73
2018-11-27T04:10:19.653Z,41.27
2018-11-27T04:12:47.347Z,41.77
2018-11-27T04:15:14.960Z,42.33
2018-11-27T04:17:42.758Z,42.53
2018-11-27T04:20:11.295Z,41.87
2018-11-27T04:22:39.461Z,38.87
2018-11-27T04:25:10.609Z,39.90
2018-11-27T04:27:38.416Z,43.67
2018-11-27T04:30:08.955Z,39.27
2018-11-27T04:32:36.717Z,41.57
2018-11-27T04:35:04.945Z,41.33
2018-11-27T04:37:32.625Z,37.67
2018-11-27T04:40:00.407Z,39.30
2018-11-27T04:42:28.184Z,40.73
2018-11-27T04:44:55.982Z,36.53
2018-11-27T04:47:23.735Z,37.73
2018-11-27T04:49:51.293Z,38.47
2018-11-27T04:52:19.036Z,34.80
2018-11-27T04:54:46.671Z,38.33
2018-11-27T04:57:14.386Z,36.10
2018-11-27T04:59:42.175Z,40.80
2018-11-27T05:02:09.943Z,42.43
2018-11-27T05:04:37.631Z,39.40
2018-11-27T05:07:05.499Z,40.77
2018-11-27T05:09:33.170Z,35.77
2018-11-27T05:12:00.942Z,41.90
2018-11-27T05:14:28.694Z,40.23
2018-11-27T05:16:56.418Z,37.40
2018-11-27T05:19:24.110Z,39.93
2018-11-27T05:21:51.860Z,39.53
2018-11-27T05:24:19.480Z,39.87
2018-11-27T05:26:47.193Z,43.10
2018-11-27T05:29:14.932Z,37.60
2018-11-27T05:31:42.914Z,36.60
2018-11-27T05:34:10.604Z,38.83
2018-11-27T05:36:38.403Z,41.27
2018-11-27T05:39:08.177Z,41.90
2018-11-27T05:41:36.138Z,38.03
2018-11-27T05:44:04.600Z,39.63
2018-11-27T05:46:32.314Z,36.40
2018-11-27T05:48:59.965Z,40.33
2018-11-27T05:51:27.681Z,36.60
2018-11-27T05:53:55.315Z,36.87
2018-11-27T05:56:23.079Z,35.67
2018-11-27T05:58:53.011Z,37.50
2018-11-27T06:01:20.836Z,40.30
2018-11-27T06:03:48.573Z,36.30
2018-11-27T06:06:16.419Z,37.63
2018-11-27T06:08:44.185Z,38.80
2018-11-27T06:11:11.889Z,37.40
2018-11-27T06:13:39.623Z,40.93
2018-11-27T06:16:07.313Z,37.50
2018-11-27T06:18:35.062Z,38.00
2018-11-27T06:21:02.625Z,38.93
2018-11-27T06:23:30.397Z,41.10
2018-11-27T06:25:58.185Z,37.87
2018-11-27T06:28:25.967Z,35.20
2018-11-27T06:30:54.635Z,39.90
2018-11-27T06:33:22.375Z,39.30
2018-11-27T06:35:49.976Z,38.10
2018-11-27T06:38:17.810Z,37.90
2018-11-27T06:40:47.696Z,39.13
2018-11-27T06:43:15.451Z,40.97
2018-11-27T06:45:43.205Z,36.60
2018-11-27T06:48:10.897Z,38.23
2018-11-27T06:50:38.519Z,39.97
2018-11-27T06:53:07.042Z,40.57
2018-11-27T06:55:34.895Z,39.00
2018-11-27T06:58:02.781Z,42.57
2018-11-27T07:00:30.366Z,32.67
2018-11-27T07:02:58.595Z,35.83
2018-11-27T07:05:26.366Z,33.70
2018-11-27T07:07:54.147Z,32.63
2018-11-27T07:10:25.180Z,33.23
2018-11-27T07:12:54.509Z,35.50
2018-11-27T07:15:22.614Z,32.77
2018-11-27T07:17:50.431Z,33.97
2018-11-27T07:20:18.282Z,34.03
2018-11-27T07:22:47.344Z,33.40
2018-11-27T07:25:15.675Z,31.60
2018-11-27T07:27:48.373Z,34.23
2018-11-27T07:30:18.154Z,30.87
2018-11-27T07:32:45.947Z,30.97
2018-11-27T07:35:14.399Z,34.90
2018-11-27T07:37:42.098Z,30.67
2018-11-27T07:40:14.112Z,30.03
2018-11-27T07:42:42.173Z,30.80
2018-11-27T07:45:13.965Z,33.10
2018-11-27T07:47:41.736Z,32.47
2018-11-27T07:50:10.357Z,31.23
2018-11-27T07:52:38.138Z,31.00
2018-11-27T07:55:08.190Z,33.77
2018-11-27T07:57:35.880Z,28.03
2018-11-27T08:00:05.110Z,27.30
2018-11-27T08:02:32.739Z,30.40
2018-11-27T08:05:00.444Z,29.33
2018-11-27T08:07:28.109Z,27.50
2018-11-27T08:09:55.796Z,28.73
2018-11-27T08:12:23.566Z,32.10
2018-11-27T08:14:51.369Z,27.80
2018-11-27T08:17:19.114Z,26.27
2018-11-27T08:19:46.860Z,30.67
2018-11-27T08:22:14.532Z,29.07
2018-11-27T08:24:42.175Z,31.03
2018-11-27T08:27:09.965Z,29.27
2018-11-27T08:29:37.794Z,25.97
2018-11-27T08:32:05.606Z,30.33
2018-11-27T08:34:34.496Z,30.50
2018-11-27T08:37:02.308Z,30.30
2018-11-27T08:39:30.048Z,34.57
2018-11-27T08:41:57.809Z,28.03
2018-11-27T08:44:25.472Z,28.60
2018-11-27T08:46:54.943Z,34.27
2018-11-27T08:49:22.802Z,27.20
2018-11-27T08:51:50.489Z,26.80
2018-11-27T08:54:18.352Z,27.77
2018-11-27T08:56:46.119Z,27.37
2018-11-27T08:59:13.985Z,25.73
2018-11-27T09:01:41.778Z,25.63
2018-11-27T09:04:09.438Z,27.13
2018-11-27T09:06:37.098Z,28.27
2018-11-27T09:09:08.252Z,26.10
2018-11-27T09:11:36.136Z,28.87
2018-11-27T09:14:03.893Z,34.50
2018-11-27T09:16:31.649Z,25.50
2018-11-27T09:18:59.418Z,24.97
2018-11-27T09:21:27.223Z,26.87
2018-11-27T09:23:56.815Z,27.13
2018-11-27T09:26:24.646Z,24.30
2018-11-27T09:28:52.877Z,29.03
2018-11-27T09:31:20.788Z,28.17
2018-11-27T09:33:48.544Z,28.27
2018-11-27T09:36:16.349Z,28.17
2018-11-27T09:38:43.928Z,22.57
2018-11-27T09:41:11.656Z,25.63
2018-11-27T09:43:39.282Z,25.53
2018-11-27T09:46:06.882Z,25.97
2018-11-27T09:48:34.598Z,24.63
2018-11-27T09:51:02.282Z,24.80
2018-11-27T09:53:29.957Z,26.33
2018-11-27T09:55:57.613Z,24.40
2018-11-27T09:58:25.371Z,27.87
2018-11-27T10:00:53.088Z,25.20
2018-11-27T10:03:20.785Z,23.87
2018-11-27T10:05:48.484Z,25.77
2018-11-27T10:08:16.236Z,24.33
2018-11-27T10:10:46.167Z,24.00
2018-11-27T10:13:13.837Z,25.87
2018-11-27T10:15:41.566Z,26.50
2018-11-27T10:18:09.333Z,27.13
2018-11-27T10:20:38.373Z,24.10
2018-11-27T10:23:07.622Z,25.90
2018-11-27T10:25:35.354Z,26.67
2018-11-27T10:28:03.092Z,23.93
2018-11-27T10:30:30.791Z,23.97
2018-11-27T10:32:58.579Z,23.70
2018-11-27T10:35:35.017Z,26.43
2018-11-27T10:38:02.815Z,24.63
2018-11-27T10:40:30.595Z,21.27
2018-11-27T10:42:58.387Z,21.40
2018-11-27T10:45:26.159Z,22.27
2018-11-27T10:47:54.828Z,23.60
2018-11-27T10:50:22.717Z,26.23
2018-11-27T10:52:54.987Z,21.10
2018-11-27T10:55:23.645Z,22.00
2018-11-27T10:57:51.311Z,19.83
2018-11-27T11:00:26.610Z,20.87
2018-11-27T11:03:02.136Z,20.57
2018-11-27T11:05:31.018Z,20.63
2018-11-27T11:07:58.814Z,20.77
2018-11-27T11:10:26.554Z,20.97
2018-11-27T11:12:54.468Z,21.03
2018-11-27T11:15:22.271Z,22.70
2018-11-27T11:17:50.249Z,19.93
2018-11-27T11:20:18.362Z,20.67
2018-11-27T11:22:46.271Z,19.73
2018-11-27T11:25:16.379Z,22.50
2018-11-27T11:27:45.071Z,22.27
2018-11-27T11:30:15.987Z,22.23
2018-11-27T11:32:43.806Z,22.23
2018-11-27T11:35:11.913Z,22.27
2018-11-27T11:37:40.049Z,22.53
2018-11-27T11:40:19.497Z,20.87
2018-11-27T11:42:48.208Z,23.23
2018-11-27T11:45:16.033Z,19.27
2018-11-27T11:47:43.813Z,21.87
2018-11-27T11:50:14.560Z,22.93
2018-11-27T11:52:45.509Z,20.30
2018-11-27T11:55:19.859Z,19.23
2018-11-27T11:57:47.620Z,22.80
2018-11-27T12:00:17.983Z,20.80
2018-11-27T12:02:45.688Z,21.33
2018-11-27T12:05:13.567Z,17.67
2018-11-27T12:07:41.389Z,15.30
2018-11-27T12:10:10.991Z,17.23
2018-11-27T12:12:38.872Z,19.47
2018-11-27T12:15:12.504Z,19.37
2018-11-27T12:17:40.930Z,15.13
2018-11-27T12:20:09.394Z,18.77
2018-11-27T12:22:37.129Z,15.30
2018-11-27T12:25:06.930Z,18.70
2018-11-27T12:27:34.783Z,17.43
2018-11-27T12:30:02.595Z,17.33
2018-11-27T12:32:30.440Z,17.90
2018-11-27T12:34:58.229Z,18.30
2018-11-27T12:37:26.448Z,17.87
2018-11-27T12:39:54.355Z,18.67
2018-11-27T12:42:22.217Z,17.57
2018-11-27T12:44:50.091Z,18.47
2018-11-27T12:47:17.957Z,18.17
2018-11-27T12:49:45.751Z,16.60
2018-11-27T12:52:13.581Z,16.77
2018-11-27T12:54:41.480Z,16.80
2018-11-27T12:57:09.243Z,18.53
2018-11-27T12:59:37.062Z,18.83
2018-11-27T13:02:04.860Z,17.77
2018-11-27T13:04:32.781Z,17.33
2018-11-27T13:07:00.645Z,20.30
2018-11-27T13:09:28.478Z,19.17
2018-11-27T13:11:56.246Z,21.63
2018-11-27T13:14:23.919Z,20.97
2018-11-27T13:16:51.590Z,18.47
2018-11-27T13:19:21.540Z,18.67
2018-11-27T13:21:49.496Z,17.97
2018-11-27T13:24:17.106Z,21.27
2018-11-27T13:26:44.821Z,18.43
2018-11-27T13:29:12.553Z,20.60
2018-11-27T13:31:40.244Z,21.87
2018-11-27T13:34:10.057Z,22.63
2018-11-27T13:36:37.925Z,20.40
2018-11-27T13:39:16.963Z,24.60
2018-11-27T13:41:44.685Z,18.93
2018-11-27T13:44:12.436Z,17.10
2018-11-27T13:46:40.123Z,17.27
2018-11-27T13:49:07.840Z,16.77
2018-11-27T13:51:35.561Z,18.47
2018-11-27T13:54:03.240Z,18.30
2018-11-27T13:56:30.793Z,17.40
2018-11-27T13:58:58.532Z,17.43
2018-11-27T14:01:26.315Z,20.03
2018-11-27T14:03:54.967Z,18.63
2018-11-27T14:06:22.607Z,19.53
2018-11-27T14:08:50.371Z,20.33
2018-11-27T14:11:19.249Z,18.63
2018-11-27T14:13:45.829Z,19.07
2018-11-27T14:16:13.453Z,16.83
2018-11-27T14:18:41.205Z,15.33
2018-11-27T14:21:08.899Z,17.23
2018-11-27T14:23:36.510Z,16.00
2018-11-27T14:26:04.295Z,18.67
2018-11-27T14:28:32.062Z,17.43
2018-11-27T14:30:59.832Z,16.73
2018-11-27T14:33:27.535Z,17.03
2018-11-27T14:35:55.271Z,15.63
2018-11-27T14:38:23.039Z,18.03
2018-11-27T14:40:50.820Z,15.53
2018-11-27T14:43:18.546Z,16.63
2018-11-27T14:45:47.448Z,16.00
2018-11-27T14:48:15.118Z,19.10
2018-11-27T14:50:42.862Z,16.17
2018-11-27T14:53:10.593Z,17.30
2018-11-27T14:55:38.306Z,20.53
2018-11-27T14:58:06.413Z,19.53
2018-11-27T15:00:34.231Z,17.20
2018-11-27T15:03:01.920Z,16.80
2018-11-27T15:05:32.928Z,19.50
2018-11-27T15:08:00.948Z,17.37
2018-11-27T15:10:28.774Z,16.47
2018-11-27T15:12:58.054Z,18.53
2018-11-27T15:15:25.762Z,17.00
2018-11-27T15:17:53.556Z,17.53
2018-11-27T15:20:21.990Z,17.07
2018-11-27T15:22:50.134Z,25.03
2018-11-27T15:25:17.878Z,17.37
2018-11-27T15:27:45.952Z,16.37
2018-11-27T15:30:17.825Z,16.17
2018-11-27T15:32:45.569Z,16.20
2018-11-27T15:35:13.400Z,17.40
2018-11-27T15:37:41.188Z,17.00
2018-11-27T15:40:11.603Z,17.93
2018-11-27T15:42:39.318Z,16.57
2018-11-27T15:45:08.049Z,18.53
2018-11-27T15:47:35.854Z,19.30
2018-11-27T15:50:04.330Z,18.93
2018-11-27T15:52:32.062Z,17.37
2018-11-27T15:54:59.887Z,20.30
2018-11-27T15:57:27.598Z,20.70
2018-11-27T15:59:55.337Z,17.03
2018-11-27T16:02:23.163Z,21.10
2018-11-27T16:04:50.820Z,18.63
2018-11-27T16:07:18.603Z,18.83
2018-11-27T16:09:46.520Z,17.70
2018-11-27T16:12:14.625Z,18.77
2018-11-27T16:14:42.503Z,19.07
2018-11-27T16:17:10.258Z,17.43
2018-11-27T16:19:38.001Z,18.40
2018-11-27T16:22:05.847Z,18.97
2018-11-27T16:24:33.733Z,22.57
2018-11-27T16:27:01.538Z,19.50
2018-11-27T16:29:29.345Z,17.43
2018-11-27T16:31:57.070Z,18.93
2018-11-27T16:34:24.931Z,20.10
2018-11-27T16:36:52.807Z,19.77
2018-11-27T16:39:20.645Z,22.17
2018-11-27T16:41:48.440Z,20.50
2018-11-27T16:44:16.415Z,20.97
2018-11-27T16:46:44.276Z,22.40
2018-11-27T16:49:11.879Z,21.23
2018-11-27T16:51:39.729Z,21.97
2018-11-27T16:54:07.578Z,22.63
2018-11-27T16:56:35.377Z,22.23
2018-11-27T16:59:03.110Z,20.67
2018-11-27T17:01:30.869Z,23.77
2018-11-27T17:03:58.702Z,26.60
2018-11-27T17:06:26.364Z,22.17
2018-11-27T17:08:54.057Z,23.33
2018-11-27T17:11:21.835Z,24.63
2018-11-27T17:13:49.702Z,22.77
2018-11-27T17:16:17.624Z,24.70
2018-11-27T17:18:45.411Z,25.03
2018-11-27T17:21:13.155Z,25.13
2018-11-27T17:23:41.544Z,22.43
2018-11-27T17:26:09.440Z,24.17
2018-11-27T17:28:37.308Z,22.70
2018-11-27T17:31:13.271Z,25.57
2018-11-27T17:33:48.122Z,25.13
2018-11-27T17:36:15.884Z,23.57
2018-11-27T17:38:43.617Z,24.40
2018-11-27T17:41:11.331Z,20.37
2018-11-27T17:43:39.539Z,23.77
2018-11-27T17:46:07.517Z,21.07
2018-11-27T17:48:35.168Z,24.30
2018-11-27T17:51:02.999Z,24.67
2018-11-27T17:53:30.760Z,25.40
2018-11-27T17:55:58.434Z,26.30
2018-11-27T17:58:26.310Z,25.17
2018-11-27T18:00:54.145Z,24.83
2018-11-27T18:03:21.852Z,23.47
2018-11-27T18:05:49.599Z,26.37
2018-11-27T18:08:17.341Z,23.30
2018-11-27T18:10:45.162Z,26.27
2018-11-27T18:13:12.880Z,23.93
2018-11-27T18:15:40.623Z,26.40
2018-11-27T18:18:08.436Z,23.97
2018-11-27T18:20:36.065Z,28.57
2018-11-27T18:23:03.856Z,24.93
2018-11-27T18:25:31.545Z,24.80
2018-11-27T18:27:59.367Z,23.13
2018-11-27T18:30:27.490Z,26.03
2018-11-27T18:32:55.293Z,25.83
2018-11-27T18:35:23.826Z,21.53
2018-11-27T18:37:52.086Z,21.33
2018-11-27T18:40:20.173Z,24.33
2018-11-27T18:42:48.058Z,23.83
2018-11-27T18:45:19.751Z,20.77
2018-11-27T18:47:47.526Z,21.17
2018-11-27T18:50:15.377Z,23.70
2018-11-27T18:52:43.578Z,23.83
2018-11-27T18:55:18.514Z,23.73
2018-11-27T18:57:47.190Z,21.37
2018-11-27T19:00:22.040Z,23.13
2018-11-27T19:02:49.916Z,22.93
2018-11-27T19:05:17.690Z,21.83
2018-11-27T19:07:45.484Z,19.30
2018-11-27T19:10:17.160Z,22.67
2018-11-27T19:12:45.034Z,21.13
2018-11-27T19:15:16.376Z,19.23
2018-11-27T19:17:45.426Z,20.70
2018-11-27T19:20:13.315Z,19.97
2018-11-27T19:22:41.151Z,22.03
2018-11-27T19:25:09.768Z,23.77
2018-11-27T19:27:37.414Z,26.03
2018-11-27T19:30:23.088Z,28.93
2018-11-27T19:32:50.836Z,27.87
2018-11-27T19:35:25.011Z,28.40
2018-11-27T19:37:48.646Z,26.13
2018-11-27T19:40:18.019Z,25.67
2018-11-27T19:42:45.843Z,24.17
2018-11-27T19:45:15.920Z,26.10
2018-11-27T19:47:43.698Z,25.53
2018-11-27T19:50:11.769Z,26.23
2018-11-27T19:52:39.981Z,24.40
2018-11-27T19:55:09.568Z,22.50
2018-11-27T19:57:37.264Z,24.77
2018-11-27T20:00:16.190Z,23.63
2018-11-27T20:02:45.170Z,22.93
2018-11-27T20:05:14.172Z,24.17
2018-11-27T20:07:42.035Z,22.97
2018-11-27T20:10:11.250Z,28.40
2018-11-27T20:12:39.089Z,23.90
2018-11-27T20:15:11.259Z,25.00
2018-11-27T20:17:38.875Z,24.00
2018-11-27T20:20:07.649Z,25.97
2018-11-27T20:22:35.640Z,29.90
2018-11-27T20:25:03.671Z,27.73
2018-11-27T20:27:31.337Z,27.07
2018-11-27T20:29:59.139Z,29.57
2018-11-27T20:32:26.862Z,28.50
2018-11-27T20:34:54.671Z,26.60
2018-11-27T20:37:22.383Z,22.97
2018-11-27T20:39:50.187Z,27.90
2018-11-27T20:42:18.004Z,28.90
2018-11-27T20:44:47.030Z,28.40
2018-11-27T20:47:14.934Z,24.93
2018-11-27T20:49:42.964Z,27.43
2018-11-27T20:52:10.735Z,26.27
2018-11-27T20:54:38.457Z,27.17
2018-11-27T20:57:06.289Z,25.37
2018-11-27T20:59:34.121Z,29.63
2018-11-27T21:02:01.978Z,24.60
2018-11-27T21:04:29.676Z,27.37
2018-11-27T21:06:57.452Z,25.53
2018-11-27T21:09:25.251Z,24.60
2018-11-27T21:11:52.881Z,27.10
2018-11-27T21:14:20.641Z,25.20
2018-11-27T21:16:48.378Z,28.07
2018-11-27T21:19:16.220Z,32.30
2018-11-27T21:21:44.000Z,27.13
2018-11-27T21:24:11.756Z,24.97
2018-11-27T21:26:39.431Z,26.67
2018-11-27T21:29:07.261Z,26.07
2018-11-27T21:31:34.939Z,31.73
2018-11-27T21:34:03.052Z,23.20
2018-11-27T21:36:30.895Z,26.90
2018-11-27T21:38:58.585Z,29.17
2018-11-27T21:41:26.644Z,28.27
2018-11-27T21:43:54.382Z,26.60
2018-11-27T21:46:22.070Z,27.83
2018-11-27T21:48:49.794Z,26.47
2018-11-27T21:51:17.459Z,28.77
2018-11-27T21:53:45.174Z,27.23
2018-11-27T21:56:12.891Z,28.03
2018-11-27T21:58:40.628Z,28.37
2018-11-27T22:01:08.358Z,31.13
2018-11-27T22:03:36.114Z,28.50
2018-11-27T22:06:03.952Z,28.63
2018-11-27T22:08:31.684Z,27.60
2018-11-27T22:11:00.870Z,28.37
2018-11-27T22:13:28.861Z,27.93
2018-11-27T22:15:56.542Z,23.97
2018-11-27T22:18:24.143Z,25.70
2018-11-27T22:20:51.849Z,25.43
2018-11-27T22:23:19.657Z,28.47
2018-11-27T22:25:47.462Z,27.07
2018-11-27T22:28:15.459Z,25.13
2018-11-27T22:30:43.264Z,27.27
2018-11-27T22:33:11.100Z,27.80
2018-11-27T22:35:38.778Z,28.00
2018-11-27T22:38:07.259Z,28.37
2018-11-27T22:40:34.956Z,26.73
2018-11-27T22:43:02.718Z,24.53
2018-11-27T22:45:32.134Z,26.27
2018-11-27T22:47:59.836Z,25.23
2018-11-27T22:50:27.476Z,24.83
2018-11-27T22:52:56.700Z,25.07
2018-11-27T22:55:24.600Z,25.50
2018-11-27T22:57:52.384Z,29.30
2018-11-27T23:00:32.725Z,28.07
2018-11-27T23:03:00.479Z,28.90
2018-11-27T23:05:28.237Z,26.33
2018-11-27T23:07:55.999Z,26.40
2018-11-27T23:10:24.389Z,24.50
2018-11-27T23:12:51.977Z,25.10
2018-11-27T23:15:20.769Z,28.07
2018-11-27T23:17:48.510Z,27.37
2018-11-27T23:20:17.282Z,25.40
2018-11-27T23:22:45.092Z,24.90
2018-11-27T23:25:13.867Z,27.80
2018-11-27T23:27:41.510Z,27.13
2018-11-27T23:30:17.422Z,28.70
2018-11-27T23:32:45.255Z,27.63
2018-11-27T23:35:12.993Z,24.77
2018-11-27T23:37:40.639Z,28.40
2018-11-27T23:40:09.640Z,26.93
2018-11-27T23:42:37.683Z,26.20
2018-11-27T23:45:08.121Z,25.50
2018-11-27T23:47:35.694Z,28.37
2018-11-27T23:50:03.375Z,26.73
2018-11-27T23:52:30.972Z,25.20
2018-11-27T23:54:58.760Z,28.03
2018-11-27T23:57:26.514Z,28.37
2018-11-27T23:59:54.252Z,27.07
